Time;durP1;ratioP1;P1;durP2;ratioP2;P2;SDS_P1;SDS_P2;PMS_P1;PMS_P2;Temp;Humidity;BMP_temperature;BMP_pressure;BME280_temperature;BME280_humidity;BME280_pressure;Samples;Min_cycle;Max_cycle;Signal;HPM_P1;HPM_P2
2023/05/02 00:02:03;;;;;;;40.35;29.67;;;;;;;12.30;88.51;101359.00;5035661;28;20041;-63
2023/05/02 00:04:29;;;;;;;42.17;29.75;;;;;;;12.32;88.10;101354.66;5030381;28;20057;-65
2023/05/02 00:06:54;;;;;;;39.75;29.75;;;;;;;12.35;87.75;101364.16;5029881;28;20041;-64
2023/05/02 00:09:20;;;;;;;38.03;28.27;;;;;;;12.35;87.84;101359.84;5032139;28;20048;-64
2023/05/02 00:11:45;;;;;;;36.60;27.48;;;;;;;12.35;87.71;101361.56;5031236;28;20102;-65
2023/05/02 00:14:11;;;;;;;46.42;30.45;;;;;;;12.38;87.21;101356.34;5034382;28;20029;-65
2023/05/02 00:16:36;;;;;;;42.38;28.52;;;;;;;12.37;87.20;101358.13;5029651;28;20084;-64
2023/05/02 00:19:02;;;;;;;42.13;27.50;;;;;;;12.39;86.98;101363.28;5033193;28;20566;-64
2023/05/02 00:21:31;;;;;;;40.67;28.08;;;;;;;12.41;86.69;101364.13;5025897;28;20455;-64
2023/05/02 00:23:57;;;;;;;40.92;28.17;;;;;;;12.44;86.57;101356.31;5031436;28;20036;-64
2023/05/02 00:26:23;;;;;;;44.65;29.55;;;;;;;12.47;86.17;101361.47;5031129;28;20048;-65
2023/05/02 00:28:48;;;;;;;42.30;28.90;;;;;;;12.48;85.89;101357.16;5033071;28;20044;-64
2023/05/02 00:31:14;;;;;;;39.85;28.67;;;;;;;12.48;85.85;101368.41;5035468;28;20029;-64
2023/05/02 00:33:40;;;;;;;45.55;29.77;;;;;;;12.49;85.47;101359.75;5054390;28;20040;-65
2023/05/02 00:36:13;;;;;;;47.15;29.85;;;;;;;12.47;85.55;101361.47;5058913;28;20382;-64
2023/05/02 00:38:39;;;;;;;41.30;27.40;;;;;;;12.42;85.54;101361.53;5056543;28;20032;-64
2023/05/02 00:41:05;;;;;;;43.17;28.45;;;;;;;12.36;85.99;101369.34;5053046;28;20041;-65
2023/05/02 00:43:31;;;;;;;40.92;30.15;;;;;;;12.33;86.30;101371.09;5053615;28;20044;-64
2023/05/02 00:45:57;;;;;;;43.22;29.90;;;;;;;12.33;87.21;101374.53;5053116;28;20179;-64
2023/05/02 00:48:24;;;;;;;44.63;29.88;;;;;;;12.33;87.18;101384.91;5054101;28;20051;-64
2023/05/02 00:50:50;;;;;;;45.88;31.55;;;;;;;12.34;87.16;101386.66;5055731;28;20039;-64
2023/05/02 00:53:15;;;;;;;50.53;34.60;;;;;;;12.37;86.72;101388.34;5051557;28;20020;-64
2023/05/02 00:55:41;;;;;;;43.85;31.33;;;;;;;12.36;87.15;101376.25;5035866;28;20043;-65
2023/05/02 00:58:15;;;;;;;46.15;31.75;;;;;;;12.34;86.95;101380.59;5030103;28;20241;-64
2023/05/02 01:00:52;;;;;;;48.15;32.40;;;;;;;12.32;86.79;101388.38;5034228;28;20045;-64
2023/05/02 01:03:48;;;;;;;47.60;32.50;;;;;;;12.31;86.79;101385.81;5035120;28;20046;-65
2023/05/02 01:06:22;;;;;;;46.63;31.58;;;;;;;12.30;86.51;101390.13;5036760;28;20112;-64
2023/05/02 01:08:57;;;;;;;45.57;33.37;;;;;;;12.31;86.25;101391.84;5033750;28;20037;-64
2023/05/02 01:11:38;;;;;;;48.67;33.42;;;;;;;12.29;86.23;101403.06;5033466;28;20036;-64
2023/05/02 01:14:09;;;;;;;53.22;32.28;;;;;;;12.23;86.84;101398.78;5034924;28;20080;-65
2023/05/02 01:16:40;;;;;;;50.10;32.17;;;;;;;12.22;86.88;101406.59;5020254;28;20033;-65
2023/05/02 01:19:13;;;;;;;50.80;33.95;;;;;;;12.18;86.78;101413.50;5036118;28;20041;-64
2023/05/02 01:21:40;;;;;;;47.42;32.65;;;;;;;12.16;86.83;101411.78;5035538;28;20045;-64
2023/05/02 01:24:13;;;;;;;51.80;33.58;;;;;;;12.13;87.53;101423.03;5034073;28;20520;-64
2023/05/02 01:27:02;;;;;;;50.47;34.22;;;;;;;12.12;86.46;101418.72;5030815;28;20620;-64
2023/05/02 01:29:31;;;;;;;50.10;32.50;;;;;;;12.13;86.80;101423.03;5036566;28;20059;-64
2023/05/02 01:31:58;;;;;;;47.92;32.25;;;;;;;12.14;86.38;101427.34;5031673;28;20087;-64
2023/05/02 01:34:26;;;;;;;50.97;32.65;;;;;;;12.15;85.76;101423.88;5038053;28;20438;-64
2023/05/02 01:36:56;;;;;;;50.70;33.22;;;;;;;12.14;85.94;101419.56;5039096;28;20052;-65
2023/05/02 01:39:24;;;;;;;48.40;32.10;;;;;;;12.13;85.46;101424.75;5034915;28;20206;-64
2023/05/02 01:41:53;;;;;;;49.22;31.15;;;;;;;12.14;85.28;101437.69;5033575;28;20095;-64
2023/05/02 01:44:21;;;;;;;47.65;30.20;;;;;;;12.13;85.02;101429.94;5038004;28;20136;-64
2023/05/02 01:46:48;;;;;;;46.38;29.98;;;;;;;12.13;84.84;101436.00;5033314;28;20033;-64
2023/05/02 01:49:14;;;;;;;50.33;32.25;;;;;;;12.10;85.15;101442.91;5035085;28;20039;-64
2023/05/02 01:51:44;;;;;;;55.28;33.40;;;;;;;12.09;85.27;101449.81;5036308;28;20138;-64
2023/05/02 01:54:12;;;;;;;59.17;33.30;;;;;;;12.08;85.44;101448.09;5036505;28;20611;-64
2023/05/02 01:56:38;;;;;;;57.25;34.28;;;;;;;12.06;85.70;101447.25;5034053;28;20223;-63
2023/05/02 01:59:07;;;;;;;52.05;32.42;;;;;;;12.05;85.41;101449.84;5036715;28;20033;-63
2023/05/02 02:01:35;;;;;;;57.13;36.55;;;;;;;12.03;85.82;101454.16;5039068;28;20046;-63
2023/05/02 02:04:02;;;;;;;68.93;37.80;;;;;;;11.98;85.69;101461.97;5042418;28;20036;-64
2023/05/02 02:06:28;;;;;;;57.92;37.85;;;;;;;11.94;86.04;101462.81;5040329;28;20406;-64
2023/05/02 02:08:54;;;;;;;64.28;38.15;;;;;;;11.89;86.16;101461.97;5018673;28;20132;-64
2023/05/02 02:11:33;;;;;;;65.03;38.72;;;;;;;11.85;86.09;101466.31;5031352;28;20033;-64
2023/05/02 02:14:17;;;;;;;65.68;39.67;;;;;;;11.80;86.41;101462.88;5034358;28;20041;-64
2023/05/02 02:16:43;;;;;;;72.67;41.77;;;;;;;11.80;87.02;101469.78;5038754;28;20068;-64
2023/05/02 02:19:13;;;;;;;76.72;43.70;;;;;;;11.77;87.21;101474.97;5037859;28;20400;-64
2023/05/02 02:21:40;;;;;;;71.80;42.17;;;;;;;11.75;87.07;101477.53;5038614;28;20079;-64
2023/05/02 02:24:06;;;;;;;75.35;42.83;;;;;;;11.74;87.28;101481.00;5037794;28;20553;-63
2023/05/02 02:26:32;;;;;;;73.65;42.20;;;;;;;11.73;87.44;101489.63;5032347;28;20029;-64
2023/05/02 02:28:59;;;;;;;75.07;43.08;;;;;;;11.71;87.18;101496.56;5037733;28;20099;-63
2023/05/02 02:31:34;;;;;;;79.45;43.80;;;;;;;11.71;87.12;101493.97;5039915;28;20651;-64
2023/05/02 02:34:00;;;;;;;74.43;43.17;;;;;;;11.72;87.54;101494.84;5041344;28;20056;-63
2023/05/02 02:36:45;;;;;;;73.38;41.70;;;;;;;11.70;87.43;101500.00;5039747;28;20044;-62
2023/05/02 02:39:22;;;;;;;75.80;41.78;;;;;;;11.71;87.42;101503.47;5035686;28;20050;-63
2023/05/02 02:42:04;;;;;;;69.43;41.17;;;;;;;11.73;87.92;101499.13;5031724;28;20043;-64
2023/05/02 02:44:38;;;;;;;66.68;40.03;;;;;;;11.72;87.95;101502.59;5037764;28;20035;-63
2023/05/02 02:47:10;;;;;;;75.70;41.15;;;;;;;11.73;88.21;101501.72;5039219;28;20053;-64
2023/05/02 02:50:05;;;;;;;72.13;40.50;;;;;;;11.72;88.01;101503.44;5039100;28;20068;-64
2023/05/02 02:52:36;;;;;;;72.68;40.33;;;;;;;11.74;88.16;101511.22;5038304;28;20048;-63
2023/05/02 02:55:16;;;;;;;73.90;40.97;;;;;;;11.71;88.38;101509.50;5036736;28;20045;-63
2023/05/02 02:58:20;;;;;;;65.68;37.28;;;;;;;11.70;87.77;101515.53;5033963;28;20033;-63
2023/05/02 03:00:47;;;;;;;68.82;38.90;;;;;;;11.69;88.21;101510.38;5037345;28;20514;-63
2023/05/02 03:03:17;;;;;;;64.95;39.10;;;;;;;11.67;88.25;101519.84;5031167;28;20044;-62
2023/05/02 03:05:43;;;;;;;73.22;38.65;;;;;;;11.64;88.58;101525.03;5034421;28;20155;-64
2023/05/02 03:08:09;;;;;;;70.10;42.35;;;;;;;11.59;88.66;101530.22;5052996;28;20108;-64
2023/05/02 03:10:34;;;;;;;74.60;41.33;;;;;;;11.57;88.91;101529.38;5052799;28;20043;-63
2023/05/02 03:13:00;;;;;;;76.03;41.60;;;;;;;11.53;88.79;101530.22;5053896;28;20545;-63
2023/05/02 03:15:50;;;;;;;71.68;41.25;;;;;;;11.54;89.35;101536.28;5054913;28;20079;-63
2023/05/02 03:18:15;;;;;;;78.22;41.97;;;;;;;11.51;88.88;101544.91;5053450;28;20044;-63
2023/05/02 03:20:40;;;;;;;72.38;39.40;;;;;;;11.47;88.91;101548.34;5056009;28;20502;-65
2023/05/02 03:23:06;;;;;;;72.63;40.40;;;;;;;11.45;88.69;101544.91;5056592;28;20414;-63
2023/05/02 03:25:31;;;;;;;71.13;40.15;;;;;;;11.46;89.27;101549.19;5037792;28;20099;-64
2023/05/02 03:27:57;;;;;;;71.95;40.95;;;;;;;11.45;89.29;101550.09;5051887;28;20102;-63
2023/05/02 03:30:22;;;;;;;73.55;39.45;;;;;;;11.45;89.49;101544.91;5055914;28;20037;-63
2023/05/02 03:32:48;;;;;;;73.78;41.30;;;;;;;11.44;89.30;101550.06;5057193;28;20028;-64
2023/05/02 03:35:14;;;;;;;71.38;39.72;;;;;;;11.42;89.36;101550.06;5057886;28;20035;-63
2023/05/02 03:37:39;;;;;;;75.68;39.90;;;;;;;11.39;89.31;101550.03;5057441;28;20035;-64
2023/05/02 03:40:05;;;;;;;75.35;41.78;;;;;;;11.39;89.12;101539.69;5054290;28;20123;-64
2023/05/02 03:42:39;;;;;;;68.38;34.67;;;;;;;11.39;89.43;101549.19;5054971;28;20102;-64
2023/05/02 03:45:05;;;;;;;63.58;35.72;;;;;;;11.39;89.57;101550.03;5055560;28;20074;-65
2023/05/02 03:47:30;;;;;;;65.13;36.15;;;;;;;11.38;89.34;101552.63;5055568;28;20908;-63
2023/05/02 03:49:56;;;;;;;67.72;36.42;;;;;;;11.37;89.17;101550.91;5053600;28;20036;-64
2023/05/02 03:52:22;;;;;;;64.97;35.35;;;;;;;11.35;89.42;101554.34;5055590;28;20537;-64
2023/05/02 03:54:49;;;;;;;68.63;36.45;;;;;;;11.35;89.62;101548.31;5054596;28;20044;-64
2023/05/02 03:57:14;;;;;;;71.38;36.22;;;;;;;11.34;89.89;101554.34;5039628;28;20474;-64
2023/05/02 03:59:44;;;;;;;75.72;36.28;;;;;;;11.35;89.80;101558.66;5055384;28;20032;-64
2023/05/02 04:02:10;;;;;;;65.22;34.15;;;;;;;11.35;89.55;101556.94;5056544;28;20075;-64
2023/05/02 04:04:35;;;;;;;68.13;35.50;;;;;;;11.36;89.87;101557.81;5055250;28;20029;-64
2023/05/02 04:07:01;;;;;;;65.03;34.35;;;;;;;11.37;89.60;101558.69;5056017;28;20068;-64
2023/05/02 04:09:26;;;;;;;69.85;36.92;;;;;;;11.36;89.62;101560.41;5052968;28;20049;-64
2023/05/02 04:11:51;;;;;;;62.92;32.75;;;;;;;11.34;89.54;101555.19;5053536;28;20031;-64
2023/05/02 04:14:17;;;;;;;70.68;35.83;;;;;;;11.37;89.04;101564.69;5051875;28;20029;-64
2023/05/02 04:16:49;;;;;;;70.57;35.58;;;;;;;11.37;89.79;101562.09;5054399;28;20066;-64
2023/05/02 04:19:17;;;;;;;73.28;35.38;;;;;;;11.37;89.19;101564.69;5038132;28;20024;-64
2023/05/02 04:21:43;;;;;;;74.00;36.38;;;;;;;11.37;88.89;101563.84;5056815;28;20382;-64
2023/05/02 04:24:08;;;;;;;63.20;32.30;;;;;;;11.39;89.59;101565.56;5053929;28;20043;-65
2023/05/02 04:26:34;;;;;;;62.85;32.05;;;;;;;11.41;89.16;101568.16;5053309;28;20024;-64
2023/05/02 04:29:00;;;;;;;70.45;34.90;;;;;;;11.42;88.58;101577.66;5049396;28;20029;-64
2023/05/02 04:31:26;;;;;;;64.57;33.85;;;;;;;11.42;89.35;101582.84;5055918;28;20032;-64
2023/05/02 04:33:51;;;;;;;59.83;32.28;;;;;;;11.42;88.67;101585.41;5054823;28;20086;-64
2023/05/02 04:36:17;;;;;;;62.70;30.65;;;;;;;11.43;88.81;101589.72;5054097;28;20037;-64
2023/05/02 04:38:43;;;;;;;56.35;30.55;;;;;;;11.44;88.89;101588.91;5053587;28;20028;-64
2023/05/02 04:41:09;;;;;;;54.80;31.65;;;;;;;11.44;89.39;101594.94;5035292;28;20499;-64
2023/05/02 04:43:34;;;;;;;58.25;30.50;;;;;;;11.45;88.93;101594.09;5035074;28;20036;-63
2023/05/02 04:46:00;;;;;;;51.15;27.80;;;;;;;11.45;89.09;101601.84;5057205;28;20040;-64
2023/05/02 04:48:25;;;;;;;50.90;28.10;;;;;;;11.47;88.73;101607.03;5041087;28;20036;-64
2023/05/02 04:50:52;;;;;;;54.58;30.48;;;;;;;11.46;89.03;101607.88;5059768;28;20040;-64
2023/05/02 04:53:18;;;;;;;54.38;29.65;;;;;;;11.46;88.83;101615.63;5060429;28;20398;-63
2023/05/02 04:55:43;;;;;;;52.42;28.75;;;;;;;11.44;89.15;101618.25;5057820;28;20043;-63
2023/05/02 04:58:08;;;;;;;55.45;30.25;;;;;;;11.44;89.02;101619.97;5054680;28;20115;-64
2023/05/02 05:00:34;;;;;;;57.47;31.13;;;;;;;11.43;89.97;101624.28;5057577;28;20453;-63
2023/05/02 05:02:59;;;;;;;52.85;28.98;;;;;;;11.43;90.05;101625.94;5058011;28;20401;-63
2023/05/02 05:05:25;;;;;;;53.63;29.15;;;;;;;11.39;89.85;101630.28;5058686;28;20048;-63
2023/05/02 05:07:51;;;;;;;58.63;32.22;;;;;;;11.40;90.01;101632.00;5057111;28;20259;-64
2023/05/02 05:10:16;;;;;;;60.83;32.13;;;;;;;11.40;90.54;101633.72;5054235;28;20040;-63
2023/05/02 05:12:42;;;;;;;64.45;33.75;;;;;;;11.38;90.45;101632.84;5059506;28;20093;-63
2023/05/02 05:15:08;;;;;;;63.17;33.38;;;;;;;11.39;90.59;101635.47;5052619;28;20047;-63
2023/05/02 05:17:33;;;;;;;53.85;29.08;;;;;;;11.42;91.24;101651.00;5062214;28;20507;-63
2023/05/02 05:19:59;;;;;;;54.65;30.58;;;;;;;11.43;90.89;101644.97;5053334;28;20507;-63
2023/05/02 05:22:24;;;;;;;57.45;32.58;;;;;;;11.44;90.42;101649.31;5054579;28;20048;-63
2023/05/02 05:24:53;;;;;;;61.42;34.10;;;;;;;11.42;90.57;101648.41;5055802;28;20040;-63
2023/05/02 05:27:18;;;;;;;62.50;33.42;;;;;;;11.44;91.47;101651.03;5052522;28;20067;-63
2023/05/02 05:29:43;;;;;;;64.50;33.60;;;;;;;11.47;91.58;101641.53;5054273;28;20040;-63
2023/05/02 05:32:09;;;;;;;60.78;33.58;;;;;;;11.50;91.40;101651.03;5055658;28;20790;-63
2023/05/02 05:34:35;;;;;;;65.50;34.03;;;;;;;11.52;91.49;101655.34;5059222;28;20071;-63
2023/05/02 05:37:00;;;;;;;66.45;35.03;;;;;;;11.52;91.72;101657.94;5060252;28;20059;-63
2023/05/02 05:39:26;;;;;;;64.97;36.25;;;;;;;11.53;91.87;101664.88;5056904;28;20052;-63
2023/05/02 05:41:51;;;;;;;64.07;35.30;;;;;;;11.55;91.85;101663.13;5052944;28;20173;-63
2023/05/02 05:44:17;;;;;;;66.57;35.05;;;;;;;11.58;92.08;101667.44;5059630;28;20044;-63
2023/05/02 05:46:42;;;;;;;64.85;34.47;;;;;;;11.61;91.77;101667.44;5056708;28;20036;-62
2023/05/02 05:49:08;;;;;;;68.10;33.70;;;;;;;11.62;91.74;101680.41;5057056;28;20040;-62
2023/05/02 05:51:34;;;;;;;67.43;36.30;;;;;;;11.63;91.61;101676.09;5055760;28;20052;-63
2023/05/02 05:53:59;;;;;;;64.43;33.53;;;;;;;11.64;91.03;101686.47;5057924;28;20028;-63
2023/05/02 05:56:25;;;;;;;63.88;34.47;;;;;;;11.65;90.74;101688.19;5053072;28;20040;-62
2023/05/02 05:58:51;;;;;;;62.10;33.80;;;;;;;11.66;90.97;101689.06;5056976;28;20375;-63
2023/05/02 06:01:16;;;;;;;60.25;32.53;;;;;;;11.64;90.27;101691.63;5057022;28;20049;-63
2023/05/02 06:03:41;;;;;;;62.25;31.98;;;;;;;11.68;90.23;101697.69;5055073;28;20036;-63
2023/05/02 06:06:07;;;;;;;64.70;33.78;;;;;;;11.69;89.96;101704.59;5058513;28;20463;-62
2023/05/02 06:08:33;;;;;;;59.60;31.77;;;;;;;11.71;89.88;101697.69;5056346;28;20075;-63
2023/05/02 06:10:58;;;;;;;60.83;31.27;;;;;;;11.73;89.56;101701.13;5039057;28;20040;-62
2023/05/02 06:13:24;;;;;;;56.92;29.80;;;;;;;11.77;88.70;101700.28;5056337;28;20032;-63
2023/05/02 06:15:50;;;;;;;58.78;29.67;;;;;;;11.80;88.06;101705.47;5056017;28;20078;-63
2023/05/02 06:18:15;;;;;;;50.60;27.60;;;;;;;11.85;87.76;101707.22;5059388;28;20389;-62
2023/05/02 06:20:41;;;;;;;50.92;25.58;;;;;;;11.92;86.97;101702.03;5060853;28;20040;-63
2023/05/02 06:23:06;;;;;;;47.60;26.08;;;;;;;11.97;86.37;101708.94;5060389;28;20406;-62
2023/05/02 06:25:32;;;;;;;42.72;25.77;;;;;;;11.99;86.15;101712.41;5055545;28;20047;-63
2023/05/02 06:27:58;;;;;;;41.20;22.35;;;;;;;12.03;85.83;101715.84;5051992;28;20455;-62
2023/05/02 06:30:23;;;;;;;43.17;25.23;;;;;;;12.02;85.12;101717.59;5058718;28;20047;-63
2023/05/02 06:32:49;;;;;;;43.00;22.30;;;;;;;12.11;84.83;101719.34;5058045;28;20066;-62
2023/05/02 06:35:14;;;;;;;42.80;23.33;;;;;;;12.16;84.82;101715.03;5059697;28;20040;-62
2023/05/02 06:37:40;;;;;;;43.30;22.92;;;;;;;12.24;84.54;101723.66;5057318;28;20083;-63
2023/05/02 06:40:06;;;;;;;41.70;22.58;;;;;;;12.33;84.69;101728.84;5055859;28;20123;-63
2023/05/02 06:42:31;;;;;;;36.30;21.10;;;;;;;12.33;83.77;101731.44;5039452;28;20075;-63
2023/05/02 06:44:57;;;;;;;35.97;21.00;;;;;;;12.32;84.21;101730.56;5056161;28;20493;-63
2023/05/02 06:47:23;;;;;;;34.97;19.90;;;;;;;12.32;83.68;101747.84;5056900;28;20056;-63
2023/05/02 06:49:50;;;;;;;36.65;20.25;;;;;;;12.27;83.29;101742.66;5056745;28;20040;-63
2023/05/02 06:52:16;;;;;;;38.30;21.65;;;;;;;12.30;83.42;101752.16;5055058;28;20793;-62
2023/05/02 06:54:41;;;;;;;35.88;19.35;;;;;;;12.29;83.39;101750.44;5055024;28;20131;-63
2023/05/02 06:57:07;;;;;;;30.95;18.20;;;;;;;12.25;83.33;101759.97;5050534;28;20044;-64
2023/05/02 06:59:32;;;;;;;33.72;17.83;;;;;;;12.14;84.88;101759.06;5057305;28;20029;-64
2023/05/02 07:01:57;;;;;;;34.08;18.00;;;;;;;12.08;85.04;101764.22;5055191;28;20041;-63
2023/05/02 07:04:23;;;;;;;26.48;15.75;;;;;;;12.03;85.56;101772.88;5056915;28;20749;-63
2023/05/02 07:06:48;;;;;;;27.27;16.20;;;;;;;12.06;85.85;101773.75;5056683;28;20551;-63
2023/05/02 07:09:14;;;;;;;30.95;16.73;;;;;;;12.03;86.25;101776.34;5056958;28;20511;-63
2023/05/02 07:11:39;;;;;;;29.25;16.10;;;;;;;11.99;86.30;101782.34;5055844;28;20056;-63
2023/05/02 07:14:04;;;;;;;32.63;16.65;;;;;;;11.99;86.90;101786.69;5054608;28;20060;-63
2023/05/02 07:16:30;;;;;;;27.65;16.50;;;;;;;12.03;87.33;101788.41;5056287;28;20110;-63
2023/05/02 07:18:55;;;;;;;36.85;17.27;;;;;;;11.95;88.64;101784.94;5054315;28;20139;-63
2023/05/02 07:21:21;;;;;;;30.25;16.40;;;;;;;11.86;90.30;101798.75;5054233;28;20048;-62
2023/05/02 07:23:46;;;;;;;28.67;16.63;;;;;;;11.78;91.42;101805.66;5039164;28;20140;-64
2023/05/02 07:26:11;;;;;;;29.60;16.15;;;;;;;11.76;92.01;101802.16;5054726;28;20143;-63
2023/05/02 07:28:37;;;;;;;33.13;17.33;;;;;;;11.81;92.49;101808.25;5054056;28;20047;-64
2023/05/02 07:31:03;;;;;;;31.92;17.00;;;;;;;11.81;92.16;101808.25;5056407;28;20043;-63
2023/05/02 07:33:28;;;;;;;31.35;16.60;;;;;;;11.87;91.73;101803.91;5055459;28;20131;-64
2023/05/02 07:35:55;;;;;;;29.25;16.83;;;;;;;12.00;90.97;101812.59;5057079;28;20093;-64
2023/05/02 07:38:21;;;;;;;34.28;17.35;;;;;;;12.08;90.51;101810.03;5056501;28;20812;-63
2023/05/02 07:40:46;;;;;;;33.67;18.10;;;;;;;12.20;90.10;101808.31;5057165;28;20070;-64
2023/05/02 07:43:12;;;;;;;30.05;17.67;;;;;;;12.32;89.32;101807.47;5047793;28;20094;-64
2023/05/02 07:45:38;;;;;;;32.22;17.27;;;;;;;12.34;88.14;101813.53;5058540;28;20047;-63
2023/05/02 07:48:03;;;;;;;31.15;17.13;;;;;;;12.27;87.88;101807.47;5037963;28;20044;-64
2023/05/02 07:50:28;;;;;;;26.50;16.05;;;;;;;12.25;87.58;101816.13;5055702;28;20032;-64
2023/05/02 07:52:54;;;;;;;32.40;16.60;;;;;;;12.27;87.42;101815.25;5056639;28;21049;-63
2023/05/02 07:55:20;;;;;;;25.42;15.32;;;;;;;12.37;87.17;101821.31;5054612;28;20063;-64
2023/05/02 07:57:45;;;;;;;24.75;15.43;;;;;;;12.42;85.66;101820.47;5047908;28;20429;-64
2023/05/02 08:00:11;;;;;;;21.40;13.30;;;;;;;12.37;84.18;101818.72;5049813;28;20151;-64
2023/05/02 08:02:37;;;;;;;23.27;12.65;;;;;;;12.42;84.51;101827.38;5055100;28;20036;-66
2023/05/02 08:05:03;;;;;;;19.73;12.45;;;;;;;12.37;84.21;101823.91;5054772;28;20043;-65
2023/05/02 08:07:28;;;;;;;22.85;12.48;;;;;;;12.36;83.77;101828.22;5054094;28;20044;-64
2023/05/02 08:09:53;;;;;;;19.98;11.27;;;;;;;12.45;83.90;101829.97;5053231;28;20040;-64
2023/05/02 08:12:19;;;;;;;22.75;12.95;;;;;;;12.53;83.29;101829.94;5054322;28;20124;-64
2023/05/02 08:14:44;;;;;;;22.05;13.90;;;;;;;12.73;81.81;101830.84;5056150;28;20111;-63
2023/05/02 08:17:11;;;;;;;23.35;15.05;;;;;;;12.98;80.75;101822.16;5054954;28;20493;-64
2023/05/02 08:19:36;;;;;;;27.90;16.40;;;;;;;13.24;79.72;101827.31;5058029;28;20032;-65
2023/05/02 08:22:01;;;;;;;29.42;18.50;;;;;;;13.30;78.60;101835.97;5054847;28;20063;-64
2023/05/02 08:24:27;;;;;;;36.60;21.05;;;;;;;13.28;78.81;101837.72;5056101;28;20040;-64
2023/05/02 08:26:52;;;;;;;36.80;22.50;;;;;;;13.25;78.84;101845.53;5057247;28;20761;-63
2023/05/02 08:29:17;;;;;;;35.53;22.23;;;;;;;13.00;80.12;101857.66;5052985;28;20036;-64
2023/05/02 08:31:43;;;;;;;31.13;20.15;;;;;;;12.55;80.03;101864.56;5052483;28;20171;-63
2023/05/02 08:34:08;;;;;;;35.03;18.80;;;;;;;12.35;80.34;101872.28;5056246;28;20502;-63
2023/05/02 08:36:34;;;;;;;27.98;17.27;;;;;;;12.20;80.74;101873.13;5055213;28;20044;-64
2023/05/02 08:38:59;;;;;;;29.58;18.33;;;;;;;12.27;81.36;101867.09;5054728;28;20064;-63
2023/05/02 08:41:27;;;;;;;34.83;17.92;;;;;;;12.21;80.27;101861.91;5050968;28;20068;-64
2023/05/02 08:43:53;;;;;;;30.65;17.45;;;;;;;12.25;80.00;101866.25;5028991;28;20064;-63
2023/05/02 08:46:22;;;;;;;38.58;18.00;;;;;;;12.23;79.01;101867.06;5053331;28;20174;-64
2023/05/02 08:48:49;;;;;;;29.23;16.80;;;;;;;12.29;78.67;101867.97;5052112;28;20049;-63
2023/05/02 08:51:16;;;;;;;37.20;17.52;;;;;;;12.43;79.22;101870.59;5054479;28;20029;-63
2023/05/02 08:53:42;;;;;;;30.60;16.42;;;;;;;12.54;78.15;101861.09;5054741;28;20043;-64
2023/05/02 08:56:09;;;;;;;29.02;16.20;;;;;;;12.79;77.50;101861.97;5049253;28;20109;-63
2023/05/02 08:58:36;;;;;;;35.65;18.67;;;;;;;12.82;76.52;101862.81;5052612;28;20032;-63
2023/05/02 09:01:03;;;;;;;31.70;19.20;;;;;;;12.72;76.37;101862.84;5056941;28;20041;-64
2023/05/02 09:03:35;;;;;;;32.78;17.80;;;;;;;12.84;76.04;101858.53;5054483;28;20056;-63
2023/05/02 09:06:11;;;;;;;32.95;18.55;;;;;;;13.05;75.67;101857.66;5055911;28;20070;-64
2023/05/02 09:08:39;;;;;;;31.52;18.73;;;;;;;13.38;75.01;101856.75;5056437;28;20037;-62
2023/05/02 09:11:05;;;;;;;25.92;16.17;;;;;;;13.34;73.75;101861.06;5054293;28;20039;-63
2023/05/02 09:13:53;;;;;;;27.63;16.67;;;;;;;13.21;73.28;101861.94;5054084;28;20048;-62
2023/05/02 09:16:24;;;;;;;26.45;16.20;;;;;;;13.46;73.00;101868.84;5055115;28;20060;-63
2023/05/02 09:18:50;;;;;;;26.17;16.02;;;;;;;13.60;72.38;101868.78;5056725;28;20616;-62
2023/05/02 09:21:24;;;;;;;24.52;13.63;;;;;;;13.43;72.58;101867.97;5056098;28;20037;-63
2023/05/02 09:23:59;;;;;;;19.35;12.18;;;;;;;13.35;72.25;101878.41;5056629;28;20043;-63
2023/05/02 09:26:32;;;;;;;22.45;12.65;;;;;;;13.26;73.02;101880.13;5055789;28;20033;-63
2023/05/02 09:29:02;;;;;;;20.45;11.85;;;;;;;13.18;73.81;101895.72;5051415;28;20041;-63
2023/05/02 09:31:35;;;;;;;22.92;12.88;;;;;;;13.01;74.10;101900.06;5056659;28;20062;-63
2023/05/02 09:34:15;;;;;;;18.58;11.52;;;;;;;12.99;74.50;101906.94;5057657;28;20047;-63
2023/05/02 09:36:45;;;;;;;11.55;6.80;;;;;;;12.93;73.41;101896.56;5041996;28;20036;-63
2023/05/02 09:39:13;;;;;;;12.73;6.28;;;;;;;13.02;73.53;101890.53;5058145;28;20098;-63
2023/05/02 09:41:40;;;;;;;8.82;4.70;;;;;;;13.03;73.00;101892.28;5057262;28;20119;-63
2023/05/02 09:44:09;;;;;;;10.85;4.32;;;;;;;13.13;72.25;101887.06;5056018;28;20059;-63
2023/05/02 09:46:44;;;;;;;8.88;2.92;;;;;;;13.20;70.15;101861.97;5052055;28;20039;-64
2023/05/02 09:49:09;;;;;;;7.97;2.80;;;;;;;13.36;69.31;101848.06;5042657;28;20043;-63
2023/05/02 09:51:35;;;;;;;6.55;3.05;;;;;;;13.60;68.50;101842.81;5060174;28;20037;-64
2023/05/02 09:54:00;;;;;;;5.03;2.45;;;;;;;13.61;67.63;101825.50;5057973;28;20048;-63
2023/05/02 09:56:26;;;;;;;9.45;3.08;;;;;;;13.56;67.72;101844.53;5053368;28;20037;-63
2023/05/02 09:59:12;;;;;;;10.23;3.20;;;;;;;13.50;68.26;101852.34;5056684;28;20102;-62
2023/05/02 10:01:39;;;;;;;11.65;5.47;;;;;;;13.33;69.16;101880.13;5059374;28;20045;-62
2023/05/02 10:04:08;;;;;;;17.30;8.27;;;;;;;13.00;70.56;101908.69;5056523;28;20279;-62
2023/05/02 10:06:33;;;;;;;13.80;9.50;;;;;;;13.06;69.68;101903.50;5041943;28;20881;-63
2023/05/02 10:08:59;;;;;;;17.70;9.43;;;;;;;12.88;70.03;101906.09;5058269;28;20067;-63
2023/05/02 10:11:26;;;;;;;18.05;11.57;;;;;;;12.74;70.99;101923.34;5057265;28;20025;-62
2023/05/02 10:13:51;;;;;;;23.23;14.35;;;;;;;13.15;70.41;101910.44;5052861;28;20063;-62
2023/05/02 10:16:25;;;;;;;24.00;13.68;;;;;;;13.45;68.97;101898.28;5054938;28;20032;-62
2023/05/02 10:19:08;;;;;;;28.70;13.50;;;;;;;13.58;67.98;101873.13;5056212;28;20036;-62
2023/05/02 10:21:35;;;;;;;23.90;11.85;;;;;;;13.64;66.21;101836.75;5056451;28;20041;-63
2023/05/02 10:24:02;;;;;;;17.77;11.50;;;;;;;13.93;65.25;101816.69;5038841;28;20093;-62
2023/05/02 10:26:28;;;;;;;17.30;11.48;;;;;;;13.94;65.29;101841.81;5059343;28;20534;-64
2023/05/02 10:28:55;;;;;;;20.67;11.70;;;;;;;13.93;65.95;101852.19;5052877;28;20044;-63
2023/05/02 10:31:21;;;;;;;19.20;12.10;;;;;;;13.81;65.90;101855.72;5058220;28;20033;-64
2023/05/02 10:33:51;;;;;;;22.25;12.43;;;;;;;13.96;65.84;101858.25;5055968;28;20047;-63
2023/05/02 10:36:21;;;;;;;17.67;12.13;;;;;;;14.24;65.14;101856.38;5056808;28;20414;-63
2023/05/02 10:38:47;;;;;;;17.00;11.73;;;;;;;14.19;64.63;101826.91;5057114;28;20132;-63
2023/05/02 10:41:25;;;;;;;15.52;11.32;;;;;;;14.19;64.51;101847.72;5055274;28;20425;-62
2023/05/02 10:43:52;;;;;;;19.20;12.35;;;;;;;14.09;63.95;101822.66;5056174;28;20718;-64
2023/05/02 10:46:33;;;;;;;19.08;12.80;;;;;;;14.13;63.44;101815.72;5057592;28;20063;-63
2023/05/02 10:49:09;;;;;;;22.60;12.15;;;;;;;13.82;65.24;101865.25;5057526;28;20397;-64
2023/05/02 10:51:36;;;;;;;18.10;11.82;;;;;;;14.15;65.41;101871.16;5056967;28;20029;-62
2023/05/02 10:54:23;;;;;;;16.27;11.05;;;;;;;14.32;64.10;101835.50;5054967;28;21081;-62
2023/05/02 10:56:58;;;;;;;19.48;10.85;;;;;;;14.41;63.74;101844.16;5056508;28;20035;-63
2023/05/02 10:59:30;;;;;;;;;;;;;;;14.46;62.94;101820.69;5057098;28;20051;-64
2023/05/02 11:01:56;;;;;;;19.30;11.40;;;;;;;14.56;63.64;101828.44;5058157;28;19956;-62
2023/05/02 11:04:22;;;;;;;17.52;10.68;;;;;;;14.45;62.01;101804.25;5055539;28;20052;-64
2023/05/02 11:06:59;;;;;;;13.88;10.07;;;;;;;14.27;62.28;101800.88;5046670;28;20517;-62
2023/05/02 11:09:28;;;;;;;14.68;10.73;;;;;;;14.08;62.04;101816.59;5051136;28;20040;-63
2023/05/02 11:11:57;;;;;;;15.50;9.20;;;;;;;14.29;61.84;101800.00;5050995;28;20032;-64
2023/05/02 11:14:26;;;;;;;12.48;9.38;;;;;;;14.36;60.89;101791.28;5047494;28;20385;-63